CYCP

Blue River Airport

Blue River, British Columbia, Canada
METAR CYCP 170000Z VRB02KT 4SM BR FEW007 FEW018 BKN030 OVC050 M01/M02 A2979 RMK ST1ST1SC3SC3 VIS NW-N 15 LAST STFD OBS/NEXT 171400Z SLP121
Observed Flight Rules
Dec-17 @ 00:00 UTC (an hour ago) Marginal Visual Flight Rules
Wind Visibility Clouds Conditions
Variable at 2 knots 4 miles
  • Few at 700' AGL
  • Few at 1,800' AGL
  • Broken at 3,000' AGL
  • Overcast at 5,000' AGL
  • Mist
Temperatures Readings
Current -1°C / 30°F
Dewpoint -2°C / 28°F
Humidity 93%
Altimeter 29.79" Hg
Pressure 1012.1 hPa
Elevation 683
METAR CYCP 170000Z VRB02KT 4SM BR FEW007 FEW018 BKN030 OVC050 M01/M02 A2979 RMK ST1ST1SC3SC3 VIS NW-N 15 LAST STFD OBS/NEXT 171400Z SLP121
Observed Flight Rules
Dec-17 @ 00:00 UTC
(an hour ago)
MVFR
Wind Visibility
Variable at 2 knots 4 miles
Clouds
  • Few at 700' AGL
  • Few at 1,800' AGL
  • Broken at 3,000' AGL
  • Overcast at 5,000' AGL
Conditions
  • Mist
Temperature Dewpoint
-1°C / 30°F -2°C / 28°F
Humidity Altimeter Pressure
93% 29.79" Hg 1012.1 hPa